createdAt,value
2022-08-26T00:00:04.050Z,0
2022-08-26T00:05:02.583Z,0
2022-08-26T00:10:03.414Z,0
2022-08-26T00:15:04.120Z,0
2022-08-26T00:20:03.414Z,0
2022-08-26T00:25:02.885Z,0
2022-08-26T00:30:02.895Z,0
2022-08-26T00:35:02.759Z,0
2022-08-26T00:40:05.889Z,0
2022-08-26T00:45:11.932Z,0
2022-08-26T00:50:03.035Z,0
2022-08-26T00:55:04.700Z,0
2022-08-26T01:00:03.030Z,0
2022-08-26T01:05:04.188Z,0
2022-08-26T01:10:03.940Z,0
2022-08-26T01:15:07.023Z,0
2022-08-26T01:20:03.749Z,0
2022-08-26T01:25:04.028Z,0
2022-08-26T01:30:03.331Z,0
2022-08-26T01:35:02.879Z,0
2022-08-26T01:40:02.801Z,0
2022-08-26T01:45:04.378Z,0
2022-08-26T01:50:03.374Z,0
2022-08-26T01:55:04.271Z,0
2022-08-26T02:00:03.228Z,0
2022-08-26T02:05:02.911Z,0
2022-08-26T02:10:03.517Z,0
2022-08-26T02:15:05.976Z,0
2022-08-26T02:20:02.745Z,0
2022-08-26T02:25:02.682Z,0
2022-08-26T02:30:03.355Z,0
2022-08-26T02:35:03.273Z,0
2022-08-26T02:40:03.664Z,0
2022-08-26T02:45:03.135Z,0
2022-08-26T02:50:02.790Z,0
2022-08-26T02:55:04.541Z,0
2022-08-26T03:00:03.011Z,0
2022-08-26T03:05:02.847Z,0
2022-08-26T03:10:08.983Z,0
2022-08-26T03:15:17.729Z,0
2022-08-26T03:20:03.904Z,0
2022-08-26T03:25:03.576Z,0
2022-08-26T03:30:04.679Z,0.11
2022-08-26T03:35:02.909Z,0.57
2022-08-26T03:40:02.774Z,1.47
2022-08-26T03:45:03.889Z,3.62
2022-08-26T03:50:02.846Z,9.17
2022-08-26T03:55:04.518Z,8.33
2022-08-26T04:00:03.436Z,21.67
2022-08-26T04:05:03.824Z,41.67
2022-08-26T04:10:02.561Z,73.33
2022-08-26T04:15:03.138Z,115
2022-08-26T04:20:02.595Z,240
2022-08-26T04:25:02.610Z,331.67
2022-08-26T04:30:04.502Z,428.33
2022-08-26T04:35:06.314Z,550
2022-08-26T04:40:04.215Z,678.33
2022-08-26T04:45:10.596Z,818.33
2022-08-26T04:50:02.683Z,958.33
2022-08-26T04:55:08.879Z,1106.67
2022-08-26T05:00:02.982Z,1276.67
2022-08-26T05:05:03.775Z,1425
2022-08-26T05:10:03.748Z,1611.67
2022-08-26T05:15:05.476Z,1720
2022-08-26T05:20:04.165Z,1921.67
2022-08-26T05:25:02.648Z,2300
2022-08-26T05:30:05.692Z,2606.67
2022-08-26T05:35:09.111Z,2890
2022-08-26T05:40:04.069Z,3113.33
2022-08-26T05:45:03.149Z,3258.33
2022-08-26T05:50:02.762Z,3346.67
2022-08-26T05:55:03.998Z,3413.33
2022-08-26T06:00:02.803Z,3706.67
2022-08-26T06:05:03.609Z,3588.33
2022-08-26T06:10:33.162Z,3758.33
2022-08-26T06:15:04.322Z,4021.67
2022-08-26T06:20:02.582Z,4316.67
2022-08-26T06:25:02.540Z,4328.33
2022-08-26T06:30:04.149Z,4593.33
2022-08-26T06:35:02.749Z,4670
2022-08-26T06:40:04.290Z,4776.67
2022-08-26T06:45:03.514Z,5050
2022-08-26T06:50:02.743Z,5280
2022-08-26T06:55:04.751Z,5683.33
2022-08-26T07:00:02.570Z,7463.33
2022-08-26T07:05:03.021Z,8666.67
2022-08-26T07:10:02.649Z,9341.67
2022-08-26T07:15:03.339Z,9538.33
2022-08-26T07:20:02.797Z,10023.33
2022-08-26T07:25:04.378Z,11536.67
2022-08-26T07:30:03.111Z,11741.67
2022-08-26T07:35:02.801Z,12095
2022-08-26T07:40:02.550Z,13026.67
2022-08-26T07:45:03.111Z,13226.67
2022-08-26T07:50:02.486Z,27366.67
2022-08-26T07:55:03.413Z,13205
2022-08-26T08:00:02.996Z,13011.67
2022-08-26T08:05:03.805Z,27896.67
2022-08-26T08:10:11.785Z,30576.67
2022-08-26T08:15:03.833Z,31573.33
2022-08-26T08:20:04.604Z,29936.67
2022-08-26T08:25:08.431Z,31796.67
2022-08-26T08:30:05.224Z,33553.33
2022-08-26T08:35:12.042Z,32243.33
2022-08-26T08:40:03.024Z,35650
2022-08-26T08:45:04.187Z,41016.67
2022-08-26T08:50:03.030Z,47613.33
2022-08-26T08:55:04.113Z,41193.33
2022-08-26T09:00:02.952Z,40043.33
2022-08-26T09:05:02.969Z,37960
2022-08-26T09:10:03.251Z,37290
2022-08-26T09:15:02.673Z,39866.67
2022-08-26T09:20:03.360Z,41206.67
2022-08-26T09:25:05.097Z,42250
2022-08-26T09:30:03.629Z,43276.67
2022-08-26T09:35:02.529Z,43920
2022-08-26T09:40:03.436Z,38993.33
2022-08-26T09:45:03.086Z,45660
2022-08-26T09:50:10.040Z,48656.67
2022-08-26T09:55:04.626Z,59056.09
2022-08-26T10:00:03.289Z,59208.83
2022-08-26T10:05:09.816Z,60197.11
2022-08-26T10:10:03.347Z,61088.36
2022-08-26T10:15:02.376Z,5016.67
2022-08-26T10:20:03.160Z,8525
2022-08-26T10:25:03.993Z,3678.33
2022-08-26T10:30:03.342Z,3515
2022-08-26T10:35:03.066Z,3881.67
2022-08-26T10:40:03.537Z,2560
2022-08-26T10:45:04.008Z,2955
2022-08-26T10:50:03.933Z,3593.33
2022-08-26T10:55:03.827Z,1820
2022-08-26T11:00:05.528Z,3998.33
2022-08-26T11:05:03.225Z,5758.33
2022-08-26T11:10:03.235Z,44090
2022-08-26T11:15:05.586Z,60033.59
2022-08-26T11:20:14.804Z,30686.67
2022-08-26T11:25:02.861Z,27450
2022-08-26T11:30:02.523Z,46710
2022-08-26T11:35:04.651Z,36246.67
2022-08-26T11:40:04.226Z,6783.33
2022-08-26T11:45:06.041Z,5151.67
2022-08-26T11:50:02.641Z,5321.67
2022-08-26T11:55:04.491Z,5093.33
2022-08-26T12:00:02.558Z,4741.67
2022-08-26T12:05:03.533Z,4928.33
2022-08-26T12:10:02.760Z,4980
2022-08-26T12:15:03.693Z,4788.33
2022-08-26T12:20:02.679Z,5005
2022-08-26T12:25:03.024Z,4270
2022-08-26T12:30:08.627Z,3180
2022-08-26T12:35:08.065Z,3278.33
2022-08-26T12:40:05.630Z,2750
2022-08-26T12:45:03.486Z,726.67
2022-08-26T12:50:02.223Z,1473.33
2022-08-26T12:55:04.411Z,1273.33
2022-08-26T13:00:02.720Z,1333.33
2022-08-26T13:05:03.169Z,1288.33
2022-08-26T13:10:03.046Z,1068.33
2022-08-26T13:20:04.835Z,990
2022-08-26T13:25:03.260Z,1165
2022-08-26T13:30:03.595Z,1206.67
2022-08-26T13:35:06.144Z,1281.67
2022-08-26T13:40:03.233Z,1256.67
2022-08-26T13:45:02.750Z,1408.33
2022-08-26T13:50:02.502Z,1646.67
2022-08-26T13:55:04.529Z,1791.67
2022-08-26T14:00:02.562Z,1870
2022-08-26T14:05:03.325Z,1788.33
2022-08-26T14:10:03.085Z,1675
2022-08-26T14:15:02.770Z,1518.33
2022-08-26T14:20:02.689Z,1438.33
2022-08-26T14:25:03.302Z,1421.67
2022-08-26T14:30:03.136Z,1520
2022-08-26T14:35:02.844Z,1701.67
2022-08-26T14:40:02.712Z,1986.67
2022-08-26T14:45:03.198Z,2560
2022-08-26T14:50:02.600Z,3141.67
2022-08-26T14:55:04.437Z,3538.33
2022-08-26T15:00:02.840Z,3761.67
2022-08-26T15:05:02.431Z,4053.33
2022-08-26T15:10:03.090Z,4495
2022-08-26T15:15:02.740Z,4973.33
2022-08-26T15:20:02.417Z,5171.67
2022-08-26T15:25:03.050Z,5298.33
2022-08-26T15:30:03.371Z,5226.67
2022-08-26T15:35:09.541Z,5880
2022-08-26T15:40:03.291Z,4851.67
2022-08-26T15:45:02.967Z,4608.33
2022-08-26T15:50:02.652Z,4760
2022-08-26T16:00:02.949Z,3668.33
2022-08-26T16:05:02.637Z,3355
2022-08-26T16:10:03.117Z,2960
2022-08-26T16:15:03.513Z,2768.33
2022-08-26T16:20:03.237Z,2670
2022-08-26T16:25:02.584Z,2438.33
2022-08-26T16:30:02.832Z,2413.33
2022-08-26T16:35:02.597Z,2025
2022-08-26T16:40:03.204Z,1398.33
2022-08-26T16:45:02.848Z,1175
2022-08-26T16:50:02.796Z,1118.33
2022-08-26T16:55:03.954Z,1066.67
2022-08-26T17:00:02.961Z,948.33
2022-08-26T17:05:02.980Z,958.33
2022-08-26T17:10:02.741Z,1065
2022-08-26T17:20:03.336Z,778.33
2022-08-26T17:25:02.699Z,853.33
2022-08-26T17:30:03.265Z,860
2022-08-26T17:35:02.780Z,795
2022-08-26T17:40:02.895Z,665
2022-08-26T17:45:03.309Z,503.33
2022-08-26T17:50:02.947Z,333.33
2022-08-26T17:55:04.152Z,266.67
2022-08-26T18:00:03.988Z,203.33
2022-08-26T18:05:02.636Z,136.67
2022-08-26T18:10:04.179Z,85
2022-08-26T18:15:03.062Z,56.67
2022-08-26T18:20:02.849Z,35
2022-08-26T18:25:02.620Z,20
2022-08-26T18:30:03.202Z,8.33
2022-08-26T18:35:02.632Z,8.94
2022-08-26T18:40:04.552Z,3.96
2022-08-26T18:45:02.777Z,1.7
2022-08-26T18:50:02.737Z,0.23
2022-08-26T18:55:04.520Z,0
2022-08-26T19:00:02.947Z,0
2022-08-26T19:05:02.700Z,0
2022-08-26T19:10:05.706Z,0
2022-08-26T19:15:02.932Z,0
2022-08-26T19:20:02.596Z,0
2022-08-26T19:25:03.240Z,0
2022-08-26T19:30:02.629Z,0
2022-08-26T19:35:03.178Z,0
2022-08-26T19:40:02.613Z,0
2022-08-26T19:45:03.252Z,0
2022-08-26T19:50:03.506Z,0
2022-08-26T19:55:04.010Z,0
2022-08-26T20:00:03.215Z,0
2022-08-26T20:05:03.070Z,0
2022-08-26T20:10:02.852Z,0
2022-08-26T20:15:02.668Z,0
2022-08-26T20:20:02.958Z,0
2022-08-26T20:25:02.911Z,0
2022-08-26T20:30:03.591Z,0
2022-08-26T20:35:03.094Z,0
2022-08-26T20:40:02.901Z,0
2022-08-26T20:45:03.440Z,0
2022-08-26T20:50:02.995Z,0
2022-08-26T20:55:03.695Z,0
2022-08-26T21:00:03.396Z,0
2022-08-26T21:05:02.727Z,0
2022-08-26T21:10:03.134Z,0
2022-08-26T21:15:02.965Z,0
2022-08-26T21:20:02.809Z,0
2022-08-26T21:25:03.463Z,0
2022-08-26T21:30:02.992Z,0
2022-08-26T21:35:02.497Z,0
2022-08-26T21:40:03.242Z,0
2022-08-26T21:45:02.815Z,0
2022-08-26T21:50:03.298Z,0
2022-08-26T21:55:12.217Z,0
2022-08-26T22:00:04.989Z,0
2022-08-26T22:05:02.568Z,0
2022-08-26T22:10:03.100Z,0
2022-08-26T22:15:02.841Z,0
2022-08-26T22:20:02.263Z,0
2022-08-26T22:25:03.031Z,0
2022-08-26T22:30:02.639Z,0
2022-08-26T22:35:29.904Z,0
2022-08-26T22:40:02.852Z,0
2022-08-26T22:45:05.882Z,0
2022-08-26T22:50:03.040Z,0
2022-08-26T22:55:03.507Z,0
2022-08-26T23:00:03.087Z,0
2022-08-26T23:05:02.627Z,0
2022-08-26T23:10:02.359Z,0
2022-08-26T23:15:03.178Z,0
2022-08-26T23:20:02.583Z,0
2022-08-26T23:25:07.972Z,0
2022-08-26T23:30:02.606Z,0
2022-08-26T23:35:03.187Z,0
2022-08-26T23:40:03.447Z,0
2022-08-26T23:45:02.701Z,0
2022-08-26T23:50:03.586Z,0
2022-08-26T23:55:03.788Z,0
